createdAt,value
2023-03-01T00:00:53.316Z,34.80
2023-03-01T00:01:57.206Z,34.38
2023-03-01T00:03:03.862Z,36.75
2023-03-01T00:04:07.875Z,34.60
2023-03-01T00:05:14.706Z,34.63
2023-03-01T00:06:19.013Z,37.63
2023-03-01T00:07:24.932Z,40.55
2023-03-01T00:08:29.057Z,35.65
2023-03-01T00:09:35.425Z,35.47
2023-03-01T00:10:41.830Z,34.20
2023-03-01T00:11:48.625Z,36.38
2023-03-01T00:12:52.161Z,33.83
2023-03-01T00:14:00.818Z,36.63
2023-03-01T00:15:06.484Z,34.28
2023-03-01T00:16:14.502Z,33.72
2023-03-01T00:17:19.745Z,37.60
2023-03-01T00:18:23.834Z,47.88
2023-03-01T00:19:30.265Z,36.60
2023-03-01T00:20:33.970Z,36.88
2023-03-01T00:21:40.580Z,40.75
2023-03-01T00:22:43.884Z,34.53
2023-03-01T00:23:50.204Z,33.50
2023-03-01T00:24:54.036Z,37.47
2023-03-01T00:26:02.612Z,35.67
2023-03-01T00:27:05.793Z,34.85
2023-03-01T00:28:12.770Z,35.45
2023-03-01T00:29:16.156Z,36.80
2023-03-01T00:30:23.324Z,41.00
2023-03-01T00:31:29.054Z,38.17
2023-03-01T00:32:35.122Z,34.35
2023-03-01T00:33:37.920Z,44.13
2023-03-01T00:34:43.987Z,34.03
2023-03-01T00:35:47.419Z,35.42
2023-03-01T00:36:53.743Z,38.17
2023-03-01T00:37:59.470Z,32.72
2023-03-01T00:39:07.323Z,35.58
2023-03-01T00:40:12.467Z,34.08
2023-03-01T00:41:23.921Z,35.78
2023-03-01T00:43:32.937Z,34.80
2023-03-01T00:44:36.768Z,33.78
2023-03-01T00:45:42.580Z,37.28
2023-03-01T00:46:46.192Z,33.83
2023-03-01T00:47:53.590Z,33.22
2023-03-01T00:48:56.779Z,38.88
2023-03-01T00:50:02.938Z,33.72
2023-03-01T00:51:10.736Z,34.83
2023-03-01T00:52:16.720Z,45.20
2023-03-01T00:53:19.970Z,38.15
2023-03-01T00:54:25.958Z,35.80
2023-03-01T00:55:29.316Z,47.20
2023-03-01T00:56:37.719Z,36.03
2023-03-01T00:57:40.723Z,33.63
2023-03-01T00:58:46.833Z,30.27
2023-03-01T00:59:50.362Z,34.00
2023-03-01T01:00:56.633Z,34.95
2023-03-01T01:02:01.099Z,37.60
2023-03-01T01:03:07.790Z,33.50
2023-03-01T01:04:16.281Z,31.92
2023-03-01T01:05:22.537Z,36.40
2023-03-01T01:06:30.347Z,34.97
2023-03-01T01:07:34.160Z,31.25
2023-03-01T01:08:40.311Z,35.40
2023-03-01T01:09:43.551Z,33.08
2023-03-01T01:10:50.055Z,35.25
2023-03-01T01:11:56.082Z,31.77
2023-03-01T01:13:02.438Z,36.72
2023-03-01T01:14:05.311Z,32.13
2023-03-01T01:15:14.446Z,32.53
2023-03-01T01:16:19.220Z,33.30
2023-03-01T01:17:25.580Z,33.55
2023-03-01T01:18:28.968Z,32.65
2023-03-01T01:19:35.213Z,32.28
2023-03-01T01:20:39.343Z,30.85
2023-03-01T01:21:46.134Z,34.38
2023-03-01T01:22:49.661Z,32.47
2023-03-01T01:23:56.486Z,32.70
2023-03-01T01:25:00.240Z,32.85
2023-03-01T01:26:12.279Z,31.85
2023-03-01T01:27:18.584Z,43.03
2023-03-01T01:28:24.705Z,36.20
2023-03-01T01:29:28.114Z,32.60
2023-03-01T01:30:34.756Z,34.95
2023-03-01T01:31:39.870Z,32.50
2023-03-01T01:32:46.283Z,32.15
2023-03-01T01:33:50.227Z,33.35
2023-03-01T01:34:56.639Z,35.10
2023-03-01T01:36:00.308Z,34.45
2023-03-01T01:37:09.414Z,34.00
2023-03-01T01:38:12.855Z,34.33
2023-03-01T01:39:19.290Z,39.33
2023-03-01T01:40:22.724Z,38.30
2023-03-01T01:41:30.453Z,67.38
2023-03-01T01:42:37.107Z,31.67
2023-03-01T01:43:45.863Z,31.05
2023-03-01T01:44:49.835Z,35.03
2023-03-01T01:45:59.703Z,34.28
2023-03-01T01:47:06.349Z,31.63
2023-03-01T01:48:17.799Z,33.40
2023-03-01T01:49:33.559Z,33.42
2023-03-01T01:50:40.342Z,32.40
2023-03-01T01:51:50.473Z,32.83
2023-03-01T01:52:55.416Z,32.65
2023-03-01T01:54:06.239Z,32.40
2023-03-01T01:55:12.460Z,30.48
2023-03-01T01:56:20.374Z,35.30
2023-03-01T01:57:29.569Z,36.03
2023-03-01T01:58:38.020Z,31.77
2023-03-01T01:59:44.412Z,32.97
2023-03-01T02:00:51.891Z,36.05
2023-03-01T02:01:58.386Z,30.92
2023-03-01T02:03:05.070Z,32.45
2023-03-01T02:04:11.655Z,34.17
2023-03-01T02:05:22.823Z,34.17
2023-03-01T02:06:33.460Z,38.20
2023-03-01T02:07:38.824Z,31.05
2023-03-01T02:08:49.048Z,39.25
2023-03-01T02:09:57.553Z,34.70
2023-03-01T02:11:05.698Z,33.92
2023-03-01T02:12:09.039Z,32.65
2023-03-01T02:13:16.145Z,32.33
2023-03-01T02:14:23.315Z,38.17
2023-03-01T02:15:29.771Z,34.75
2023-03-01T02:16:34.773Z,31.92
2023-03-01T02:17:42.519Z,32.58
2023-03-01T02:18:47.286Z,35.30
2023-03-01T02:20:08.990Z,30.58
2023-03-01T02:21:27.437Z,35.30
2023-03-01T02:22:37.029Z,36.47
2023-03-01T02:23:40.565Z,44.95
2023-03-01T02:24:57.634Z,35.65
2023-03-01T02:26:08.877Z,33.70
2023-03-01T02:27:15.327Z,34.17
2023-03-01T02:28:46.483Z,36.78
2023-03-01T02:29:53.086Z,31.85
2023-03-01T02:31:11.160Z,34.05
2023-03-01T02:32:17.037Z,39.65
2023-03-01T02:33:22.909Z,35.95
2023-03-01T02:34:30.716Z,36.88
2023-03-01T02:35:37.386Z,31.98
2023-03-01T02:36:47.269Z,33.65
2023-03-01T02:37:51.281Z,34.53
2023-03-01T02:39:01.194Z,32.60
2023-03-01T02:40:13.064Z,34.67
2023-03-01T02:41:22.618Z,70.85
2023-03-01T02:42:33.072Z,35.83
2023-03-01T02:43:40.292Z,34.65
2023-03-01T02:44:47.240Z,38.53
2023-03-01T02:45:55.593Z,34.80
2023-03-01T02:47:02.671Z,34.22
2023-03-01T02:48:08.580Z,32.50
2023-03-01T02:49:27.847Z,33.72
2023-03-01T02:50:58.490Z,41.95
2023-03-01T02:52:28.487Z,35.60
2023-03-01T02:53:41.986Z,36.45
2023-03-01T02:54:54.803Z,35.10
2023-03-01T02:55:58.634Z,32.10
2023-03-01T02:57:06.892Z,31.92
2023-03-01T02:58:11.385Z,35.70
2023-03-01T02:59:34.257Z,37.05
2023-03-01T03:00:46.931Z,36.20
2023-03-01T03:01:54.377Z,38.78
2023-03-01T03:02:59.025Z,34.58
2023-03-01T03:04:06.262Z,34.25
2023-03-01T03:05:13.216Z,34.63
2023-03-01T03:06:19.479Z,48.33
2023-03-01T03:07:23.108Z,36.95
2023-03-01T03:08:29.837Z,37.53
2023-03-01T03:09:33.607Z,35.53
2023-03-01T03:10:44.432Z,32.65
2023-03-01T03:11:48.250Z,32.60
2023-03-01T03:14:39.292Z,30.30
2023-03-01T03:15:44.914Z,34.15
2023-03-01T03:16:51.948Z,37.20
2023-03-01T03:17:55.180Z,34.40
2023-03-01T03:19:06.038Z,34.42
2023-03-01T03:20:12.944Z,33.78
2023-03-01T03:21:18.686Z,35.15
2023-03-01T03:22:20.790Z,38.88
2023-03-01T03:23:25.908Z,39.92
2023-03-01T03:24:39.094Z,38.10
2023-03-01T03:25:44.137Z,36.08
2023-03-01T03:26:46.311Z,37.35
2023-03-01T03:27:57.917Z,34.47
2023-03-01T03:30:04.869Z,37.53
2023-03-01T03:31:09.785Z,35.78
2023-03-01T03:32:14.693Z,33.88
2023-03-01T03:33:16.809Z,37.90
2023-03-01T03:34:21.458Z,37.42
2023-03-01T03:35:26.383Z,34.40
2023-03-01T03:36:33.885Z,37.05
2023-03-01T03:37:52.126Z,33.45
2023-03-01T03:38:56.839Z,34.95
2023-03-01T03:40:00.414Z,35.63
2023-03-01T03:41:08.537Z,48.38
2023-03-01T03:42:11.273Z,26.75
2023-03-01T03:43:17.736Z,36.63
2023-03-01T03:44:19.860Z,47.28
2023-03-01T03:45:24.905Z,40.15
2023-03-01T03:46:32.674Z,37.83
2023-03-01T03:47:35.004Z,37.25
2023-03-01T03:48:41.576Z,36.63
2023-03-01T03:49:43.989Z,30.70
2023-03-01T03:50:52.830Z,34.92
2023-03-01T03:51:58.145Z,35.53
2023-03-01T03:53:02.452Z,36.47
2023-03-01T03:54:07.164Z,33.97
2023-03-01T03:55:12.640Z,34.92
2023-03-01T03:56:17.454Z,33.15
2023-03-01T03:57:19.517Z,36.35
2023-03-01T03:58:26.381Z,38.65
2023-03-01T03:59:28.948Z,38.42
2023-03-01T04:00:33.780Z,37.63
2023-03-01T04:01:41.090Z,36.40
2023-03-01T04:02:43.999Z,39.75
2023-03-01T04:03:49.147Z,33.10
2023-03-01T04:04:51.219Z,48.17
2023-03-01T04:05:56.587Z,35.78
2023-03-01T04:06:58.656Z,34.47
2023-03-01T04:08:08.659Z,32.30
2023-03-01T04:09:10.709Z,28.58
2023-03-01T04:10:17.589Z,30.02
2023-03-01T04:11:32.436Z,48.00
2023-03-01T04:12:37.205Z,35.13
2023-03-01T04:13:43.307Z,34.53
2023-03-01T04:14:48.930Z,35.60
2023-03-01T04:15:55.747Z,34.35
2023-03-01T04:17:02.725Z,36.47
2023-03-01T04:18:10.046Z,35.28
2023-03-01T04:19:13.626Z,33.53
2023-03-01T04:20:26.407Z,34.28
2023-03-01T04:21:32.029Z,42.22
2023-03-01T04:22:35.969Z,36.17
2023-03-01T04:23:42.026Z,42.38
2023-03-01T04:24:45.590Z,34.20
2023-03-01T04:25:56.787Z,35.10
2023-03-01T04:27:00.301Z,39.38
2023-03-01T04:28:05.711Z,37.28
2023-03-01T04:29:11.807Z,34.88
2023-03-01T04:30:15.961Z,36.33
2023-03-01T04:31:25.576Z,45.33
2023-03-01T04:32:31.874Z,37.38
2023-03-01T04:33:37.633Z,32.20
2023-03-01T04:34:41.637Z,31.92
2023-03-01T04:35:50.884Z,33.58
2023-03-01T04:36:54.165Z,34.97
2023-03-01T04:37:59.800Z,36.30
2023-03-01T04:39:13.621Z,32.85
2023-03-01T04:40:17.699Z,34.47
2023-03-01T04:41:25.465Z,73.97
2023-03-01T04:42:28.364Z,37.90
2023-03-01T04:43:36.495Z,37.25
2023-03-01T04:44:40.074Z,37.75
2023-03-01T04:45:46.104Z,34.88
2023-03-01T04:46:51.391Z,37.17
2023-03-01T04:47:59.498Z,36.22
2023-03-01T04:49:02.895Z,32.47
2023-03-01T04:50:09.213Z,35.70
2023-03-01T04:51:14.683Z,33.90
2023-03-01T04:52:20.106Z,35.70
2023-03-01T04:53:23.161Z,41.15
2023-03-01T04:54:29.329Z,38.58
2023-03-01T04:55:32.914Z,38.88
2023-03-01T04:56:38.767Z,32.72
2023-03-01T04:57:42.186Z,32.35
2023-03-01T04:58:48.482Z,33.88
2023-03-01T04:59:52.339Z,37.83
2023-03-01T05:00:58.949Z,33.58
2023-03-01T05:02:01.922Z,37.63
2023-03-01T05:03:09.720Z,34.15
2023-03-01T05:04:16.059Z,31.42
2023-03-01T05:05:19.099Z,45.80
2023-03-01T05:06:25.708Z,37.75
2023-03-01T05:07:29.274Z,38.05
2023-03-01T05:08:35.592Z,47.30
2023-03-01T05:09:38.672Z,33.78
2023-03-01T05:10:44.542Z,35.80
2023-03-01T05:11:48.504Z,33.35
2023-03-01T05:12:54.427Z,34.00
2023-03-01T05:13:57.949Z,37.53
2023-03-01T05:15:08.532Z,32.85
2023-03-01T05:16:13.087Z,35.03
2023-03-01T05:19:29.436Z,35.53
2023-03-01T05:20:32.844Z,37.92
2023-03-01T05:21:59.694Z,37.50
2023-03-01T05:23:06.563Z,34.25
2023-03-01T05:24:13.266Z,35.22
2023-03-01T05:25:19.273Z,36.45
2023-03-01T05:26:29.699Z,35.10
2023-03-01T05:27:32.879Z,41.72
2023-03-01T05:28:39.200Z,37.00
2023-03-01T05:29:42.560Z,36.90
2023-03-01T05:30:48.154Z,34.03
2023-03-01T05:31:52.460Z,37.92
2023-03-01T05:32:59.065Z,33.13
2023-03-01T05:34:03.923Z,35.28
2023-03-01T05:35:14.861Z,36.30
2023-03-01T05:36:20.141Z,35.67
2023-03-01T05:37:23.588Z,42.03
2023-03-01T05:38:30.008Z,38.80
2023-03-01T05:39:33.397Z,39.63
2023-03-01T05:40:38.399Z,33.47
2023-03-01T05:41:41.711Z,37.90
2023-03-01T05:42:50.537Z,38.05
2023-03-01T05:43:52.511Z,36.75
2023-03-01T05:44:57.803Z,35.78
2023-03-01T05:45:59.819Z,39.80
2023-03-01T05:47:04.493Z,36.45
2023-03-01T05:48:10.290Z,33.05
2023-03-01T05:49:14.380Z,39.45
2023-03-01T05:50:23.443Z,36.22
2023-03-01T05:51:25.616Z,39.20
2023-03-01T05:52:30.340Z,38.03
2023-03-01T05:53:35.034Z,38.58
2023-03-01T05:54:37.783Z,29.10
2023-03-01T05:55:43.825Z,37.75
2023-03-01T05:56:46.241Z,37.42
2023-03-01T05:57:52.293Z,37.28
2023-03-01T05:58:54.347Z,35.75
2023-03-01T05:59:58.980Z,37.78
2023-03-01T06:01:03.669Z,34.05
2023-03-01T06:02:05.814Z,37.60
2023-03-01T06:03:10.606Z,37.90
2023-03-01T06:04:12.613Z,34.47
2023-03-01T06:05:17.675Z,26.50
2023-03-01T06:06:22.263Z,37.10
2023-03-01T06:07:26.999Z,40.80
2023-03-01T06:08:29.199Z,38.80
2023-03-01T06:09:33.990Z,35.90
2023-03-01T06:10:36.085Z,36.30
2023-03-01T06:11:41.342Z,35.80
2023-03-01T06:12:44.804Z,37.17
2023-03-01T06:13:50.183Z,40.58
2023-03-01T06:14:52.447Z,35.83
2023-03-01T06:15:57.230Z,34.90
2023-03-01T06:16:59.664Z,42.47
2023-03-01T06:18:04.525Z,37.03
2023-03-01T06:19:06.676Z,37.00
2023-03-01T06:20:14.420Z,36.70
2023-03-01T06:21:19.429Z,39.42
2023-03-01T06:22:24.501Z,40.38
2023-03-01T06:23:29.469Z,37.58
2023-03-01T06:24:31.754Z,41.47
2023-03-01T06:25:37.215Z,35.58
2023-03-01T06:26:39.302Z,39.47
2023-03-01T06:27:44.952Z,39.97
2023-03-01T06:28:47.377Z,37.28
2023-03-01T06:29:52.465Z,45.58
2023-03-01T06:30:54.782Z,39.08
2023-03-01T06:31:59.734Z,37.70
2023-03-01T06:33:02.571Z,37.17
2023-03-01T06:34:07.409Z,38.20
2023-03-01T06:35:11.823Z,38.75
2023-03-01T06:36:19.724Z,40.05
2023-03-01T06:37:24.475Z,40.17
2023-03-01T06:38:29.085Z,42.15
2023-03-01T06:39:31.310Z,46.42
2023-03-01T06:40:36.523Z,43.00
2023-03-01T06:41:38.816Z,38.60
2023-03-01T06:42:45.216Z,41.08
2023-03-01T06:43:47.613Z,48.78
2023-03-01T06:44:52.340Z,38.05
2023-03-01T06:45:54.725Z,38.35
2023-03-01T06:46:59.504Z,38.90
2023-03-01T06:48:06.620Z,39.05
2023-03-01T06:49:11.612Z,37.95
2023-03-01T06:50:15.087Z,39.08
2023-03-01T06:51:19.921Z,40.25
2023-03-01T06:52:24.894Z,37.65
2023-03-01T06:53:29.594Z,38.40
2023-03-01T06:54:31.840Z,38.53
2023-03-01T06:55:36.774Z,37.25
2023-03-01T06:56:38.988Z,36.70
2023-03-01T06:57:43.898Z,37.60
2023-03-01T06:58:46.070Z,33.10
2023-03-01T06:59:51.077Z,39.03
2023-03-01T07:00:53.495Z,49.13
2023-03-01T07:01:58.650Z,35.67
2023-03-01T07:03:03.047Z,35.25
2023-03-01T07:04:08.225Z,46.28
2023-03-01T07:05:13.214Z,37.20
2023-03-01T07:06:15.631Z,35.22
2023-03-01T07:07:21.410Z,35.70
2023-03-01T07:11:26.403Z,41.38
2023-03-01T07:12:28.384Z,40.53
2023-03-01T07:13:33.000Z,41.90
2023-03-01T07:14:35.049Z,39.97
2023-03-01T07:15:39.782Z,40.05
2023-03-01T07:16:41.921Z,39.78
2023-03-01T07:17:48.720Z,32.10
2023-03-01T07:18:53.386Z,35.95
2023-03-01T07:19:55.446Z,40.88
2023-03-01T07:21:00.116Z,35.80
2023-03-01T07:22:05.349Z,36.65
2023-03-01T07:23:08.076Z,39.10
2023-03-01T07:24:13.465Z,38.47
2023-03-01T07:25:18.454Z,35.47
2023-03-01T07:26:25.241Z,35.20
2023-03-01T07:27:28.246Z,41.70
2023-03-01T07:28:37.020Z,42.58
2023-03-01T07:29:41.752Z,44.53
2023-03-01T07:30:43.824Z,36.20
2023-03-01T07:31:48.761Z,37.35
2023-03-01T07:32:55.599Z,37.20
2023-03-01T07:33:57.965Z,37.53
2023-03-01T07:35:02.619Z,34.22
2023-03-01T07:36:08.952Z,34.95
2023-03-01T07:37:11.181Z,32.65
2023-03-01T07:38:15.953Z,40.90
2023-03-01T07:39:19.445Z,36.22
2023-03-01T07:40:27.125Z,36.17
2023-03-01T07:41:31.811Z,59.45
2023-03-01T07:42:33.963Z,42.58
2023-03-01T07:43:38.569Z,36.80
2023-03-01T07:44:40.640Z,37.13
2023-03-01T07:45:45.249Z,37.05
2023-03-01T07:46:47.457Z,35.85
2023-03-01T07:47:53.749Z,38.78
2023-03-01T07:48:59.365Z,40.05
2023-03-01T07:50:04.882Z,37.85
2023-03-01T07:51:08.691Z,38.33
2023-03-01T07:52:14.913Z,39.72
2023-03-01T07:53:17.010Z,39.97
2023-03-01T07:54:21.843Z,34.22
2023-03-01T07:55:29.163Z,38.83
2023-03-01T07:56:31.453Z,37.53
2023-03-01T07:57:36.264Z,40.13
2023-03-01T07:58:39.988Z,39.90
2023-03-01T07:59:44.707Z,36.70
2023-03-01T08:00:46.684Z,38.88
2023-03-01T08:01:51.356Z,38.65
2023-03-01T08:02:56.081Z,40.00
2023-03-01T08:03:58.070Z,30.10
2023-03-01T08:05:02.835Z,34.05
2023-03-01T08:06:07.067Z,35.83
2023-03-01T08:07:11.985Z,35.35
2023-03-01T08:08:13.999Z,36.40
2023-03-01T08:09:18.784Z,35.72
2023-03-01T08:10:20.958Z,37.97
2023-03-01T08:11:29.249Z,36.50
2023-03-01T08:12:33.819Z,44.13
2023-03-01T08:13:36.082Z,43.08
2023-03-01T08:14:40.990Z,41.60
2023-03-01T08:15:43.039Z,40.03
2023-03-01T08:16:47.693Z,39.97
2023-03-01T08:17:51.392Z,40.30
2023-03-01T08:18:57.741Z,37.08
2023-03-01T08:20:02.791Z,49.65
2023-03-01T08:21:08.280Z,40.65
2023-03-01T08:22:12.984Z,39.30
2023-03-01T08:23:15.094Z,38.85
2023-03-01T08:24:19.839Z,31.50
2023-03-01T08:25:21.908Z,41.78
2023-03-01T08:26:29.293Z,37.63
2023-03-01T08:27:34.075Z,40.42
2023-03-01T08:28:38.984Z,38.90
2023-03-01T08:29:43.654Z,45.80
2023-03-01T08:30:48.484Z,40.15
2023-03-01T08:31:53.201Z,34.10
2023-03-01T08:32:55.861Z,42.17
2023-03-01T08:34:03.829Z,38.58
2023-03-01T08:35:09.543Z,35.25
2023-03-01T08:36:11.629Z,34.78
2023-03-01T08:37:16.253Z,39.40
2023-03-01T08:38:20.828Z,37.75
2023-03-01T08:39:25.546Z,38.13
2023-03-01T08:40:27.655Z,39.15
2023-03-01T08:41:34.879Z,60.50
2023-03-01T08:42:37.646Z,46.75
2023-03-01T08:43:42.340Z,39.63
2023-03-01T08:44:47.117Z,40.70
2023-03-01T08:45:49.881Z,32.92
2023-03-01T08:46:56.714Z,39.72
2023-03-01T08:47:58.837Z,35.95
2023-03-01T08:49:03.848Z,43.53
2023-03-01T08:50:09.850Z,40.17
2023-03-01T08:51:13.704Z,36.63
2023-03-01T08:52:18.315Z,38.63
2023-03-01T08:53:20.289Z,37.22
2023-03-01T08:54:26.112Z,30.27
2023-03-01T08:55:30.718Z,39.40
2023-03-01T08:56:38.093Z,45.92
2023-03-01T08:57:40.072Z,38.50
2023-03-01T08:58:48.065Z,38.45
2023-03-01T08:59:50.148Z,35.20
2023-03-01T09:00:54.813Z,37.20
2023-03-01T09:01:56.789Z,38.13
2023-03-01T09:03:01.363Z,39.58
2023-03-01T09:04:06.163Z,36.38
2023-03-01T09:05:09.265Z,34.97
2023-03-01T09:06:15.587Z,31.33
2023-03-01T09:07:20.183Z,38.75
2023-03-01T09:08:22.267Z,40.17
2023-03-01T09:09:26.945Z,34.90
2023-03-01T09:10:31.745Z,37.17
2023-03-01T09:11:38.992Z,41.75
2023-03-01T09:12:43.626Z,49.65
2023-03-01T09:13:45.975Z,46.95
2023-03-01T09:14:50.673Z,37.45
2023-03-01T09:15:52.853Z,37.92
2023-03-01T09:16:57.850Z,44.65
2023-03-01T09:18:00.401Z,39.80
2023-03-01T09:19:05.257Z,36.72
2023-03-01T09:20:08.114Z,38.78
2023-03-01T09:21:15.196Z,38.67
2023-03-01T09:22:19.869Z,35.10
2023-03-01T09:23:22.000Z,35.80
2023-03-01T09:24:28.278Z,33.40
2023-03-01T09:25:33.105Z,37.83
2023-03-01T09:26:40.523Z,43.13
2023-03-01T09:27:45.189Z,38.72
2023-03-01T09:28:48.075Z,39.08
2023-03-01T09:29:52.679Z,37.65
2023-03-01T09:30:57.278Z,39.97
2023-03-01T09:32:01.897Z,38.88
2023-03-01T09:33:04.016Z,39.08
2023-03-01T09:34:09.508Z,41.58
2023-03-01T09:35:12.037Z,34.85
2023-03-01T09:36:18.729Z,41.97
2023-03-01T09:37:20.836Z,41.80
2023-03-01T09:38:26.668Z,42.17
2023-03-01T09:39:33.063Z,45.80
2023-03-01T09:40:37.815Z,44.63
2023-03-01T09:41:51.115Z,40.83
2023-03-01T09:43:04.018Z,38.78
2023-03-01T09:44:12.346Z,42.78
2023-03-01T09:45:28.064Z,35.88
2023-03-01T09:46:46.225Z,37.80
2023-03-01T09:47:49.692Z,46.70
2023-03-01T09:48:59.014Z,42.38
2023-03-01T09:50:10.326Z,37.17
2023-03-01T09:51:19.576Z,36.13
2023-03-01T09:52:32.139Z,33.28
2023-03-01T09:53:36.227Z,39.55
2023-03-01T09:54:41.363Z,43.97
2023-03-01T09:55:49.656Z,46.95
2023-03-01T09:57:07.964Z,43.38
2023-03-01T09:58:32.054Z,49.20
2023-03-01T09:59:46.057Z,60.10
2023-03-01T10:00:53.548Z,40.67
2023-03-01T10:02:03.909Z,37.78
2023-03-01T10:03:18.464Z,40.63
2023-03-01T10:04:43.087Z,25.63
2023-03-01T10:05:51.224Z,41.65
2023-03-01T10:07:06.262Z,40.67
2023-03-01T10:08:32.119Z,45.13
2023-03-01T10:09:38.825Z,43.97
2023-03-01T10:10:44.757Z,49.88
2023-03-01T10:11:52.659Z,45.92
2023-03-01T10:12:58.450Z,33.88
2023-03-01T10:14:06.970Z,46.45
2023-03-01T10:15:18.822Z,42.20
2023-03-01T10:16:30.892Z,41.67
2023-03-01T10:17:41.234Z,39.63
2023-03-01T10:18:47.948Z,41.03
2023-03-01T10:19:52.885Z,44.60
2023-03-01T10:21:01.138Z,38.20
2023-03-01T10:22:15.269Z,41.78
2023-03-01T10:23:17.331Z,38.72
2023-03-01T10:24:23.811Z,39.10
2023-03-01T10:25:45.068Z,38.80
2023-03-01T10:26:55.091Z,41.50
2023-03-01T10:28:09.117Z,36.90
2023-03-01T10:29:15.707Z,39.60
2023-03-01T10:30:23.742Z,35.88
2023-03-01T10:31:38.256Z,37.10
2023-03-01T10:32:43.744Z,45.30
2023-03-01T10:33:49.065Z,43.03
2023-03-01T10:34:53.676Z,55.92
2023-03-01T10:35:55.978Z,42.53
2023-03-01T10:37:04.854Z,41.00
2023-03-01T10:38:09.703Z,41.50
2023-03-01T10:39:20.406Z,40.92
2023-03-01T10:40:23.441Z,37.03
2023-03-01T10:41:30.313Z,75.22
2023-03-01T10:42:37.001Z,33.08
2023-03-01T10:43:47.286Z,45.95
2023-03-01T10:44:53.126Z,61.58
2023-03-01T10:45:57.913Z,34.40
2023-03-01T10:47:01.773Z,38.03
2023-03-01T10:48:15.929Z,38.90
2023-03-01T10:49:24.026Z,36.75
2023-03-01T10:50:28.634Z,37.38
2023-03-01T10:51:31.037Z,35.45
2023-03-01T10:52:38.570Z,39.90
2023-03-01T10:53:46.526Z,41.72
2023-03-01T10:54:57.737Z,36.50
2023-03-01T10:56:10.890Z,39.90
2023-03-01T10:57:32.227Z,47.97
2023-03-01T10:58:37.722Z,37.35
2023-03-01T10:59:42.388Z,42.83
2023-03-01T11:00:53.756Z,44.78
2023-03-01T11:02:25.645Z,42.83
2023-03-01T11:03:32.605Z,37.47
2023-03-01T11:04:34.797Z,27.45
2023-03-01T11:05:39.731Z,41.15
2023-03-01T11:06:45.848Z,45.05
2023-03-01T11:07:49.186Z,43.13
2023-03-01T11:08:55.262Z,38.40
2023-03-01T11:09:57.507Z,33.33
2023-03-01T11:11:11.108Z,32.78
2023-03-01T11:12:19.152Z,39.70
2023-03-01T11:13:21.885Z,36.90
2023-03-01T11:14:29.121Z,39.40
2023-03-01T11:15:33.907Z,46.83
2023-03-01T11:16:40.300Z,38.72
2023-03-01T11:17:54.550Z,41.80
2023-03-01T11:19:02.316Z,35.72
2023-03-01T11:20:20.089Z,43.70
2023-03-01T11:21:22.206Z,39.85
2023-03-01T11:22:27.416Z,39.05
2023-03-01T11:23:34.532Z,33.20
2023-03-01T11:24:43.848Z,37.47
2023-03-01T11:25:55.666Z,47.28
2023-03-01T11:27:01.053Z,32.05
2023-03-01T11:28:07.999Z,38.97
2023-03-01T11:29:18.964Z,42.00
2023-03-01T11:30:27.933Z,32.75
2023-03-01T11:31:39.084Z,46.13
2023-03-01T11:32:49.264Z,49.28
2023-03-01T11:33:56.986Z,53.03
2023-03-01T11:35:09.250Z,59.17
2023-03-01T11:36:21.373Z,439.38
2023-03-01T11:37:36.158Z,767.55
2023-03-01T11:38:42.580Z,497.98
2023-03-01T11:39:53.037Z,228.57
2023-03-01T11:41:06.514Z,230.43
2023-03-01T11:42:19.058Z,159.98
2023-03-01T11:43:30.586Z,81.68
2023-03-01T11:44:37.536Z,50.25
2023-03-01T11:45:51.341Z,43.40
2023-03-01T11:47:16.071Z,53.72
2023-03-01T11:48:49.528Z,45.00
2023-03-01T11:50:22.395Z,53.25
2023-03-01T11:51:34.059Z,50.67
2023-03-01T11:52:52.383Z,53.22
2023-03-01T11:54:22.711Z,59.47
2023-03-01T11:55:57.337Z,40.95
2023-03-01T11:57:06.348Z,45.17
2023-03-01T11:58:40.631Z,59.25
2023-03-01T12:00:24.139Z,48.72
2023-03-01T12:01:48.371Z,57.60
2023-03-01T12:03:19.977Z,54.92
2023-03-01T12:05:00.527Z,49.25
2023-03-01T12:06:12.581Z,41.17
2023-03-01T12:07:26.193Z,65.25
2023-03-01T12:08:35.011Z,46.88
2023-03-01T12:10:02.308Z,44.00
2023-03-01T12:11:17.149Z,44.72
2023-03-01T12:12:50.765Z,58.65
2023-03-01T12:14:10.533Z,58.78
2023-03-01T12:15:42.037Z,37.08
2023-03-01T12:17:04.680Z,48.97
2023-03-01T12:18:29.530Z,43.60
2023-03-01T12:19:47.213Z,37.63
2023-03-01T12:21:01.005Z,53.65
2023-03-01T12:22:30.160Z,49.00
2023-03-01T12:24:05.108Z,48.80
2023-03-01T12:25:34.973Z,54.85
2023-03-01T12:26:43.730Z,50.97
2023-03-01T12:28:11.872Z,52.92
2023-03-01T12:29:28.988Z,55.13
2023-03-01T12:30:44.803Z,50.83
2023-03-01T12:32:25.793Z,46.15
2023-03-01T12:33:45.981Z,49.72
2023-03-01T12:35:35.257Z,66.28
2023-03-01T12:37:02.133Z,49.78
2023-03-01T12:38:23.497Z,59.13
2023-03-01T12:39:43.681Z,51.03
2023-03-01T12:41:10.303Z,56.30
2023-03-01T12:42:25.956Z,47.00
2023-03-01T12:43:45.495Z,41.80
2023-03-01T12:45:03.145Z,68.63
2023-03-01T12:46:19.356Z,46.65
2023-03-01T12:47:45.957Z,47.90
2023-03-01T12:49:04.550Z,58.35
2023-03-01T12:50:19.542Z,39.50
2023-03-01T12:51:25.980Z,41.58
2023-03-01T12:52:41.029Z,53.30
2023-03-01T12:53:49.162Z,48.42
2023-03-01T12:54:54.612Z,60.42
2023-03-01T12:56:04.779Z,52.83
2023-03-01T12:57:20.591Z,42.92
2023-03-01T12:58:37.081Z,58.30
2023-03-01T13:00:05.890Z,45.00
2023-03-01T13:01:24.997Z,36.15
2023-03-01T13:02:37.022Z,41.08
2023-03-01T13:03:57.560Z,39.55
2023-03-01T13:05:20.503Z,46.45
2023-03-01T13:06:38.146Z,32.67
2023-03-01T13:07:57.201Z,47.72
2023-03-01T13:09:07.704Z,48.45
2023-03-01T13:10:24.042Z,40.83
2023-03-01T13:11:26.202Z,45.30
2023-03-01T13:12:53.526Z,44.20
2023-03-01T13:14:39.608Z,39.72
2023-03-01T13:15:45.028Z,47.75
2023-03-01T13:16:50.304Z,66.10
2023-03-01T13:17:56.318Z,47.78
2023-03-01T13:19:17.792Z,52.85
2023-03-01T13:20:22.253Z,43.00
2023-03-01T13:21:35.208Z,45.08
2023-03-01T13:22:49.802Z,56.88
2023-03-01T13:23:57.957Z,88.63
2023-03-01T13:25:14.320Z,43.03
2023-03-01T13:26:20.972Z,39.92
2023-03-01T13:27:26.206Z,42.58
2023-03-01T13:28:50.202Z,43.92
2023-03-01T13:29:57.073Z,50.53
2023-03-01T13:30:59.925Z,51.60
2023-03-01T13:32:05.795Z,33.10
2023-03-01T13:33:52.690Z,30.77
2023-03-01T13:35:05.860Z,67.53
2023-03-01T13:36:09.787Z,113.63
2023-03-01T13:37:23.243Z,90.18
2023-03-01T13:38:50.334Z,249.13
2023-03-01T13:39:52.534Z,415.65
2023-03-01T13:41:04.142Z,118.63
2023-03-01T13:43:36.488Z,34.80
2023-03-01T13:44:40.016Z,111.90
2023-03-01T13:45:46.927Z,47.65
2023-03-01T13:46:49.545Z,48.78
2023-03-01T13:47:59.360Z,171.65
2023-03-01T13:49:04.884Z,80.43
2023-03-01T13:50:19.977Z,128.80
2023-03-01T13:51:29.119Z,82.38
2023-03-01T13:52:43.272Z,187.60
2023-03-01T13:53:50.812Z,158.30
2023-03-01T13:54:54.108Z,108.35
2023-03-01T13:56:02.316Z,53.75
2023-03-01T13:57:07.495Z,62.78
2023-03-01T13:58:20.817Z,46.50
2023-03-01T13:59:27.422Z,63.33
2023-03-01T14:00:36.241Z,44.40
2023-03-01T14:01:43.679Z,50.33
2023-03-01T14:02:46.093Z,39.15
2023-03-01T14:03:50.773Z,45.53
2023-03-01T14:04:58.317Z,46.20
2023-03-01T14:06:15.944Z,46.42
2023-03-01T14:07:25.267Z,38.70
2023-03-01T14:08:30.268Z,40.30
2023-03-01T14:09:35.578Z,40.53
2023-03-01T14:10:52.451Z,34.72
2023-03-01T14:12:20.241Z,45.17
2023-03-01T14:13:40.140Z,46.40
2023-03-01T14:14:52.220Z,40.67
2023-03-01T14:16:18.645Z,43.00
2023-03-01T14:17:38.592Z,35.60
2023-03-01T14:18:53.234Z,38.80
2023-03-01T14:20:01.040Z,54.88
2023-03-01T14:21:11.696Z,50.65
2023-03-01T14:22:20.450Z,37.33
2023-03-01T14:23:28.060Z,29.98
2023-03-01T14:24:33.638Z,33.67
2023-03-01T14:25:40.076Z,33.60
2023-03-01T14:26:42.170Z,33.83
2023-03-01T14:27:47.334Z,37.53
2023-03-01T14:28:52.986Z,46.72
2023-03-01T14:29:59.808Z,39.33
2023-03-01T14:31:05.414Z,40.78
2023-03-01T14:32:23.466Z,30.95
2023-03-01T14:33:30.709Z,35.00
2023-03-01T14:34:33.934Z,50.28
2023-03-01T14:35:40.026Z,37.50
2023-03-01T14:36:47.814Z,36.55
2023-03-01T14:37:50.997Z,46.10
2023-03-01T14:38:56.056Z,41.53
2023-03-01T14:40:00.047Z,44.22
2023-03-01T14:41:07.504Z,38.53
2023-03-01T14:42:15.503Z,88.88
2023-03-01T14:43:27.374Z,37.25
2023-03-01T14:44:35.058Z,38.17
2023-03-01T14:45:39.794Z,33.58
2023-03-01T14:46:44.489Z,37.05